createdAt,value
2017-09-08T14:33:58.565Z,264.30
2017-09-08T14:34:58.662Z,285.50
2017-09-08T14:35:59.770Z,304.00
2017-09-08T14:36:58.493Z,243.20
2017-09-08T14:37:59.043Z,230.20
2017-09-08T14:38:58.322Z,235.20
2017-09-08T14:40:00.574Z,222.90
2017-09-08T14:40:57.961Z,229.70
2017-09-08T14:41:58.243Z,230.70
2017-09-08T14:42:58.255Z,212.00
2017-09-08T14:43:58.043Z,187.80
2017-09-08T14:44:57.902Z,192.90
2017-09-08T14:54:06.467Z,4.40
2017-09-08T14:56:27.290Z,16.60
2017-09-08T14:57:27.498Z,27.10
2017-09-08T15:00:11.868Z,11.70
2017-09-08T15:01:11.523Z,9.00
2017-09-08T15:03:04.773Z,18.20
2017-09-08T15:04:05.718Z,11.50
2017-09-08T15:05:58.720Z,18.20
2017-09-08T15:06:58.424Z,21.80
2017-09-08T15:08:51.488Z,18.60
2017-09-08T15:09:51.800Z,14.10
2017-09-08T15:11:45.685Z,9.90
2017-09-08T15:12:45.290Z,9.20
2017-09-08T15:14:38.355Z,7.00
2017-09-08T15:15:38.880Z,15.20
2017-09-08T15:17:32.906Z,13.30
2017-09-08T15:18:32.824Z,14.80
2017-09-08T15:20:24.590Z,11.10
2017-09-08T15:21:26.164Z,10.40
2017-09-08T15:23:19.845Z,13.20
2017-09-08T15:24:20.816Z,32.90
2017-09-08T15:26:12.762Z,15.80
2017-09-08T15:27:14.365Z,21.40
2017-09-08T15:29:04.725Z,24.20
2017-09-08T15:31:27.489Z,13.80
2017-09-08T15:32:21.100Z,7.80
2017-09-08T15:34:22.656Z,16.50
2017-09-08T15:35:12.428Z,9.80
2017-09-08T15:38:38.860Z,10.70
2017-09-08T15:39:38.570Z,8.10
2017-09-08T15:41:32.148Z,26.40
2017-09-08T15:42:31.815Z,26.00
2017-09-08T15:45:25.171Z,13.70
2017-09-08T15:47:19.147Z,22.00
2017-09-08T15:48:19.385Z,18.70
2017-09-08T15:50:19.698Z,10.30
2017-09-08T15:51:11.816Z,8.00
2017-09-08T15:53:07.059Z,7.50
2017-09-08T15:54:05.275Z,7.60
2017-09-08T15:55:58.547Z,5.40
2017-09-08T15:56:58.665Z,10.60
2017-09-08T15:58:52.685Z,18.90
2017-09-08T15:59:51.836Z,12.60
2017-09-08T16:01:44.905Z,9.40
2017-09-08T16:02:45.230Z,6.20
2017-09-08T16:04:39.072Z,11.30
2017-09-08T16:05:38.545Z,19.10
2017-09-08T16:06:38.299Z,15.80
2017-09-08T16:07:37.983Z,15.20
2017-09-08T16:08:38.007Z,14.20
2017-09-08T16:09:38.343Z,6.40
2017-09-08T16:10:38.179Z,5.90
2017-09-08T16:11:38.094Z,9.70
2017-09-08T16:12:38.145Z,12.70
2017-09-08T16:13:38.616Z,11.60
2017-09-08T16:14:38.200Z,9.30
2017-09-08T16:15:38.093Z,10.50
2017-09-08T16:16:38.108Z,13.70
2017-09-08T16:17:37.916Z,10.90
2017-09-08T16:18:37.970Z,5.90
2017-09-08T16:19:38.390Z,8.70
2017-09-08T16:20:38.474Z,3.80
2017-09-08T16:21:37.933Z,8.10
2017-09-08T16:22:37.643Z,4.90
2017-09-08T16:23:37.640Z,7.30
2017-09-08T16:27:01.129Z,8.60
2017-09-08T16:28:01.010Z,6.10
2017-09-08T16:29:00.801Z,5.60
2017-09-08T16:30:00.634Z,8.30
2017-09-08T16:31:00.992Z,7.70
2017-09-08T16:32:02.493Z,7.60
2017-09-08T16:33:00.961Z,6.90
2017-09-08T16:34:00.864Z,4.80
2017-09-08T16:35:00.895Z,14.50
2017-09-08T16:36:00.623Z,10.60
2017-09-08T16:37:00.794Z,8.70
2017-09-08T16:38:00.630Z,7.30
2017-09-08T16:39:00.514Z,29.40
2017-09-08T16:40:01.703Z,13.30
2017-09-08T16:41:00.764Z,9.50
2017-09-08T16:42:00.468Z,12.70
2017-09-08T16:43:00.409Z,7.80
2017-09-08T16:44:00.590Z,7.10
2017-09-08T16:45:00.645Z,5.90
2017-09-08T16:46:00.622Z,4.40
2017-09-08T16:48:33.304Z,9.40
2017-09-08T16:49:32.691Z,11.20
2017-09-08T16:50:47.996Z,4.20
2017-09-08T16:51:33.231Z,6.30
2017-09-08T16:52:32.620Z,4.60
2017-09-08T16:53:32.479Z,3.70
2017-09-08T16:54:32.451Z,3.60
2017-09-08T16:55:32.311Z,7.80
2017-09-08T16:56:32.400Z,4.90
2017-09-08T16:57:32.589Z,7.70
2017-09-08T16:58:32.430Z,7.60
2017-09-08T16:59:32.210Z,6.40
2017-09-08T17:00:32.200Z,2.90
2017-09-08T17:01:32.750Z,2.60
2017-09-08T17:02:32.403Z,3.20
2017-09-08T17:03:32.219Z,3.50
2017-09-08T17:04:31.983Z,2.60
2017-09-08T17:05:32.562Z,3.40
2017-09-08T17:06:32.115Z,3.90
2017-09-08T17:07:32.234Z,5.00
2017-09-08T17:10:55.287Z,5.40
2017-09-08T17:11:55.289Z,4.20
2017-09-08T17:12:55.379Z,4.60
2017-09-08T17:13:57.948Z,7.70
2017-09-08T17:14:56.806Z,7.50
2017-09-08T17:15:55.351Z,8.50
2017-09-08T17:16:54.896Z,5.80
2017-09-08T17:17:54.949Z,5.90
2017-09-08T17:18:54.873Z,8.00
2017-09-08T17:19:54.747Z,8.60
2017-09-08T17:20:54.930Z,6.40
2017-09-08T17:21:54.665Z,8.80
2017-09-08T17:22:54.809Z,11.60
2017-09-08T17:23:55.245Z,6.20
2017-09-08T17:24:54.818Z,6.70
2017-09-08T17:25:55.055Z,10.00
2017-09-08T17:26:54.936Z,4.00
2017-09-08T17:27:54.778Z,5.00
2017-09-08T17:28:54.746Z,8.30
2017-09-08T17:29:54.703Z,6.10
2017-09-08T17:32:27.395Z,10.00
2017-09-08T17:33:27.639Z,7.20
2017-09-08T17:34:27.288Z,6.20
2017-09-08T17:35:27.037Z,9.70
2017-09-08T17:36:27.337Z,12.20
2017-09-08T17:37:26.694Z,5.10
2017-09-08T17:38:26.432Z,8.80
2017-09-08T17:39:26.827Z,7.60
2017-09-08T17:40:26.605Z,5.00
2017-09-08T17:41:26.632Z,16.80
2017-09-08T17:42:26.585Z,4.90
2017-09-08T17:43:26.334Z,6.60
2017-09-08T17:44:26.241Z,6.20
2017-09-08T17:45:26.560Z,6.70
2017-09-08T17:46:27.820Z,8.40
2017-09-08T17:47:26.225Z,4.90
2017-09-08T17:48:26.549Z,4.50
2017-09-08T17:49:26.283Z,6.40
2017-09-08T17:50:27.611Z,7.80
2017-09-08T17:51:26.068Z,8.50
2017-09-08T17:53:58.541Z,7.60
2017-09-08T17:54:58.503Z,6.00
2017-09-08T17:55:59.366Z,5.60
2017-09-08T17:56:58.267Z,6.00
2017-09-08T17:57:58.260Z,5.90
2017-09-08T17:58:58.189Z,4.50
2017-09-08T17:59:57.913Z,5.20
2017-09-08T18:00:57.975Z,5.00
2017-09-08T18:01:58.188Z,4.90
2017-09-08T18:02:57.887Z,6.20
2017-09-08T18:03:57.928Z,5.30
2017-09-08T18:04:57.806Z,5.10
2017-09-08T18:05:58.056Z,2.90
2017-09-08T18:06:57.816Z,3.70
2017-09-08T18:07:57.909Z,7.20
2017-09-08T18:08:57.785Z,4.60
2017-09-08T18:09:57.984Z,5.00
2017-09-08T18:10:57.443Z,5.30
2017-09-08T18:11:58.180Z,4.80
2017-09-08T18:12:57.779Z,3.80
2017-09-08T18:15:30.237Z,8.00
2017-09-08T18:16:29.755Z,5.70
2017-09-08T18:17:31.346Z,6.20
2017-09-08T18:18:29.473Z,6.70
2017-09-08T18:19:29.627Z,5.00
2017-09-08T18:20:29.618Z,9.00
2017-09-08T18:21:29.797Z,7.20
2017-09-08T18:22:29.491Z,5.90
2017-09-08T18:23:29.429Z,5.40
2017-09-08T18:24:29.469Z,4.30
2017-09-08T18:25:29.406Z,4.10
2017-09-08T18:26:29.358Z,5.10
2017-09-08T18:27:29.478Z,5.30
2017-09-08T18:28:29.425Z,2.60
2017-09-08T18:29:29.313Z,6.60
2017-09-08T18:30:29.198Z,4.50
2017-09-08T18:31:29.508Z,7.40
2017-09-08T18:32:30.385Z,14.40
2017-09-08T18:33:29.348Z,5.40
2017-09-08T18:34:29.163Z,7.60
2017-09-08T18:37:01.705Z,6.90
2017-09-08T18:38:01.362Z,8.00
2017-09-08T18:39:54.524Z,7.30
2017-09-08T18:40:54.908Z,5.80
2017-09-08T18:42:48.432Z,5.80
2017-09-08T18:43:55.839Z,6.30
2017-09-08T18:45:41.045Z,9.20
2017-09-08T18:46:41.864Z,8.40
2017-09-08T18:47:41.148Z,5.70
2017-09-08T18:48:41.005Z,7.30
2017-09-08T18:49:41.095Z,6.10
2017-09-08T18:50:40.983Z,8.10
2017-09-08T18:51:48.768Z,7.20
2017-09-08T18:53:35.113Z,10.90
2017-09-08T18:54:34.803Z,8.40
2017-09-08T18:56:27.886Z,10.80
2017-09-08T18:57:28.155Z,15.90
2017-09-08T18:59:21.634Z,10.80
2017-09-08T19:00:21.327Z,11.30
2017-09-08T19:02:14.488Z,8.60
2017-09-08T19:03:14.777Z,7.20
2017-09-08T19:05:08.315Z,10.00
2017-09-08T19:06:08.070Z,22.50
2017-09-08T19:08:01.479Z,11.00
2017-09-08T19:09:01.045Z,7.20
2017-09-08T19:10:54.925Z,10.10
2017-09-08T19:11:54.818Z,15.50
2017-09-08T19:13:47.616Z,5.30
2017-09-08T19:14:48.001Z,6.50
2017-09-08T19:16:41.600Z,6.30
2017-09-08T19:17:41.493Z,7.00
2017-09-08T19:18:41.488Z,10.40
2017-09-08T19:19:41.073Z,8.10
2017-09-08T19:20:41.196Z,6.00
2017-09-08T19:21:41.154Z,5.40
2017-09-08T19:22:41.071Z,8.00
2017-09-08T19:23:40.978Z,6.80
2017-09-08T19:24:40.910Z,5.70
2017-09-08T19:25:40.854Z,7.00
2017-09-08T19:26:40.948Z,7.40
2017-09-08T19:27:40.929Z,9.90
2017-09-08T19:28:40.918Z,9.00
2017-09-08T19:29:40.792Z,6.50
2017-09-08T19:30:40.903Z,6.20
2017-09-08T19:31:41.085Z,7.40
2017-09-08T19:32:40.852Z,12.00
2017-09-08T19:33:41.001Z,6.10
2017-09-08T19:34:40.752Z,6.20
2017-09-08T19:35:40.567Z,9.20
2017-09-08T19:38:13.194Z,6.40
2017-09-08T19:39:12.863Z,7.40
2017-09-08T19:40:12.404Z,9.10
2017-09-08T19:41:12.503Z,10.80
2017-09-08T19:42:12.473Z,9.50
2017-09-08T19:43:12.558Z,11.00
2017-09-08T19:44:12.599Z,8.60
2017-09-08T19:45:12.974Z,9.30
2017-09-08T19:46:12.465Z,8.80
2017-09-08T19:47:12.553Z,9.20
2017-09-08T19:48:12.466Z,11.50
2017-09-08T19:49:13.117Z,9.30
2017-09-08T19:50:12.266Z,6.60
2017-09-08T19:51:12.403Z,5.40
2017-09-08T19:52:14.298Z,5.10
2017-09-08T19:53:12.319Z,7.30
2017-09-08T19:54:12.528Z,7.80
2017-09-08T19:55:12.347Z,6.40
2017-09-08T19:56:13.070Z,6.70
2017-09-08T19:57:11.985Z,9.30
2017-09-08T20:00:35.635Z,6.50
2017-09-08T20:01:35.327Z,7.10
2017-09-08T20:02:35.381Z,4.50
2017-09-08T20:03:35.160Z,4.00
2017-09-08T20:04:35.289Z,6.20
2017-09-08T20:05:35.040Z,4.30
2017-09-08T20:06:35.188Z,5.00
2017-09-08T20:07:35.030Z,4.50
2017-09-08T20:08:34.783Z,4.80
2017-09-08T20:09:34.814Z,5.40
2017-09-08T20:10:34.894Z,5.10
2017-09-08T20:11:35.037Z,4.70
2017-09-08T20:12:34.860Z,3.60
2017-09-08T20:13:34.698Z,5.20
2017-09-08T20:14:34.771Z,5.60
2017-09-08T20:15:34.876Z,4.60
2017-09-08T20:16:34.720Z,4.50
2017-09-08T20:17:34.544Z,3.10
2017-09-08T20:18:35.007Z,6.60
2017-09-08T20:19:34.935Z,5.20
2017-09-08T20:22:58.393Z,5.10
2017-09-08T20:23:57.906Z,4.50
2017-09-08T20:24:57.882Z,6.40
2017-09-08T20:25:56.336Z,9.40
2017-09-08T20:26:57.656Z,8.40
2017-09-08T20:27:57.685Z,10.50
2017-09-08T20:28:57.868Z,9.40
2017-09-08T20:29:57.560Z,7.30
2017-09-08T20:30:57.411Z,18.00
2017-09-08T20:31:57.351Z,25.20
2017-09-08T20:32:57.577Z,10.30
2017-09-08T20:33:57.513Z,11.70
2017-09-08T20:34:57.511Z,4.60
2017-09-08T20:35:57.333Z,16.80
2017-09-08T20:36:57.451Z,7.00
2017-09-08T20:37:57.177Z,5.40
2017-09-08T20:38:57.159Z,8.00
2017-09-08T20:39:57.279Z,6.70
2017-09-08T20:40:57.132Z,13.20
2017-09-08T20:41:57.543Z,7.30
2017-09-08T20:45:20.878Z,7.50
2017-09-08T20:46:20.538Z,6.00
2017-09-08T20:47:20.478Z,5.40
2017-09-08T20:48:20.296Z,6.60
2017-09-08T20:49:20.308Z,7.70
2017-09-08T20:50:21.747Z,7.70
2017-09-08T20:51:21.823Z,9.30
2017-09-08T20:52:20.029Z,8.30
2017-09-08T20:53:20.208Z,10.70
2017-09-08T20:54:20.147Z,6.70
2017-09-08T20:55:20.269Z,8.70
2017-09-08T20:56:20.036Z,6.90
2017-09-08T20:57:19.915Z,3.20
2017-09-08T20:58:21.323Z,3.00
2017-09-08T20:59:19.850Z,3.50
2017-09-08T21:00:20.077Z,3.00
2017-09-08T21:01:20.198Z,3.10
2017-09-08T21:02:19.795Z,3.40
2017-09-08T21:03:20.049Z,3.70
2017-09-08T21:04:20.155Z,3.00
2017-09-08T21:06:52.494Z,3.10
2017-09-08T21:07:52.887Z,3.10
2017-09-08T21:08:51.909Z,3.20
2017-09-08T21:09:53.295Z,3.40
2017-09-08T21:10:51.915Z,3.80
2017-09-08T21:11:51.676Z,3.20
2017-09-08T21:12:52.013Z,3.50
2017-09-08T21:13:51.802Z,3.70
2017-09-08T21:14:51.638Z,3.60
2017-09-08T21:15:51.822Z,3.40
2017-09-08T21:16:51.567Z,3.20
2017-09-08T21:17:51.452Z,3.60
2017-09-08T21:18:51.661Z,3.30
2017-09-08T21:19:51.684Z,3.30
2017-09-08T21:20:51.529Z,3.20
2017-09-08T21:21:51.499Z,3.60
2017-09-08T21:22:52.387Z,3.90
2017-09-08T21:23:51.235Z,3.60
2017-09-08T21:24:51.171Z,3.80
2017-09-08T21:25:51.703Z,3.50
2017-09-08T21:28:23.601Z,4.00
2017-09-08T21:29:23.547Z,4.30
2017-09-08T21:31:16.988Z,4.20
2017-09-08T21:32:17.103Z,3.90
2017-09-08T21:33:16.927Z,3.80
2017-09-08T21:34:16.773Z,4.30
2017-09-08T21:35:16.567Z,6.70
2017-09-08T21:36:16.721Z,8.90
2017-09-08T21:37:16.604Z,28.10
2017-09-08T21:38:15.092Z,31.80
2017-09-08T21:39:16.386Z,20.80
2017-09-08T21:40:16.413Z,14.30
2017-09-08T21:41:16.708Z,15.90
2017-09-08T21:42:16.298Z,10.30
2017-09-08T21:43:16.461Z,17.80
2017-09-08T21:44:16.372Z,7.90
2017-09-08T21:45:16.397Z,8.20
2017-09-08T21:46:16.463Z,8.40
2017-09-08T21:47:16.404Z,10.30
2017-09-08T21:48:16.546Z,9.30
2017-09-08T21:49:16.572Z,11.20
2017-09-08T21:50:16.126Z,10.00
2017-09-08T21:52:48.756Z,5.60
2017-09-08T21:53:48.210Z,8.30
2017-09-08T21:55:41.586Z,9.00
2017-09-08T21:56:41.847Z,8.50
2017-09-08T21:58:35.392Z,10.20
2017-09-08T21:59:35.075Z,9.50
2017-09-08T22:00:35.086Z,6.80
2017-09-08T22:01:34.921Z,8.50
2017-09-08T22:02:34.637Z,7.60
2017-09-08T22:03:34.717Z,8.80
2017-09-08T22:04:34.745Z,8.40
2017-09-08T22:05:34.766Z,10.80
2017-09-08T22:06:34.568Z,8.80
2017-09-08T22:07:34.740Z,7.20
2017-09-08T22:08:34.598Z,7.50
2017-09-08T22:09:34.712Z,6.20
2017-09-08T22:10:34.374Z,6.40
2017-09-08T22:11:34.662Z,6.50
2017-09-08T22:12:34.460Z,7.50
2017-09-08T22:13:34.848Z,9.40
2017-09-08T22:14:34.549Z,7.60
2017-09-08T22:15:34.712Z,6.20
2017-09-08T22:16:34.606Z,5.80
2017-09-08T22:17:34.257Z,8.30
2017-09-08T22:20:08.486Z,10.70
2017-09-08T22:21:06.724Z,5.70
2017-09-08T22:22:06.289Z,5.80
2017-09-08T22:23:06.123Z,5.30
2017-09-08T22:24:06.423Z,8.80
2017-09-08T22:25:06.219Z,6.30
2017-09-08T22:26:06.247Z,8.00
2017-09-08T22:27:05.956Z,10.00
2017-09-08T22:28:06.123Z,7.40
2017-09-08T22:29:06.267Z,5.40
2017-09-08T22:30:06.066Z,5.40
2017-09-08T22:31:05.918Z,6.90
2017-09-08T22:32:06.117Z,5.80
2017-09-08T22:33:06.057Z,5.80
2017-09-08T22:34:06.159Z,7.20
2017-09-08T22:35:05.917Z,6.10
2017-09-08T22:36:06.208Z,6.00
2017-09-08T22:37:05.635Z,5.00
2017-09-08T22:38:05.783Z,6.20
2017-09-08T22:39:05.859Z,4.80
2017-09-08T22:41:38.384Z,5.60
2017-09-08T22:42:38.167Z,5.60
2017-09-08T22:43:38.248Z,6.20
2017-09-08T22:44:37.675Z,7.40
2017-09-08T22:45:37.694Z,6.80
2017-09-08T22:46:37.549Z,7.60
2017-09-08T22:47:37.455Z,7.60
2017-09-08T22:48:37.757Z,8.30
2017-09-08T22:49:37.438Z,7.30
2017-09-08T22:50:37.596Z,7.40
2017-09-08T22:51:37.681Z,7.50
2017-09-08T22:52:37.471Z,8.20
2017-09-08T22:53:37.562Z,8.10
2017-09-08T22:54:37.414Z,8.80
2017-09-08T22:55:37.395Z,8.00
2017-09-08T22:56:37.539Z,7.50
2017-09-08T22:57:38.194Z,8.60
2017-09-08T22:58:37.391Z,7.50
2017-09-08T22:59:37.075Z,7.80
2017-09-08T23:00:37.030Z,7.20
2017-09-08T23:04:00.453Z,6.60
2017-09-08T23:05:00.512Z,6.90
2017-09-08T23:06:00.592Z,7.10
2017-09-08T23:07:00.478Z,6.90
2017-09-08T23:08:00.677Z,6.40
2017-09-08T23:09:00.564Z,6.60
2017-09-08T23:10:00.264Z,5.70
2017-09-08T23:11:00.230Z,6.80
2017-09-08T23:12:00.088Z,6.50
2017-09-08T23:13:00.010Z,7.20
2017-09-08T23:14:00.045Z,5.90
2017-09-08T23:14:59.915Z,7.60
2017-09-08T23:16:00.116Z,6.30
2017-09-08T23:17:00.301Z,6.00
2017-09-08T23:18:00.100Z,5.90
2017-09-08T23:19:00.091Z,6.20
2017-09-08T23:19:59.843Z,5.10
2017-09-08T23:20:59.893Z,6.50
2017-09-08T23:21:59.888Z,6.30
2017-09-08T23:22:59.896Z,5.50
2017-09-08T23:25:32.245Z,5.70
2017-09-08T23:26:32.009Z,5.80
2017-09-08T23:27:31.833Z,5.60
2017-09-08T23:28:31.873Z,5.70
2017-09-08T23:29:31.737Z,6.10
2017-09-08T23:30:31.747Z,5.50
2017-09-08T23:31:31.777Z,5.60
2017-09-08T23:32:31.833Z,5.30
2017-09-08T23:33:30.308Z,5.20
2017-09-08T23:34:31.622Z,5.20
2017-09-08T23:35:31.697Z,5.90
2017-09-08T23:36:31.555Z,5.90
2017-09-08T23:37:31.367Z,5.90
2017-09-08T23:38:31.631Z,5.30
2017-09-08T23:39:31.498Z,5.90
2017-09-08T23:40:31.672Z,5.90
2017-09-08T23:41:31.497Z,5.70
2017-09-08T23:42:31.846Z,5.50
2017-09-08T23:43:31.358Z,5.10
2017-09-08T23:44:31.047Z,4.80
2017-09-08T23:47:03.390Z,4.40
2017-09-08T23:48:04.582Z,4.30
2017-09-08T23:49:04.443Z,4.50
2017-09-08T23:50:03.402Z,4.60
2017-09-08T23:51:03.357Z,4.40
2017-09-08T23:52:03.565Z,4.60
2017-09-08T23:53:03.117Z,5.00
2017-09-08T23:54:03.034Z,4.70
2017-09-08T23:55:03.233Z,5.10
2017-09-08T23:56:03.138Z,5.10
2017-09-08T23:57:03.173Z,5.50
2017-09-08T23:58:03.132Z,5.40
2017-09-08T23:59:02.867Z,4.90
